Time;durP1;ratioP1;P1;durP2;ratioP2;P2;SDS_P1;SDS_P2;PMS_P1;PMS_P2;Temp;Humidity;BMP_temperature;BMP_pressure;BME280_temperature;BME280_humidity;BME280_pressure;Samples;Min_cycle;Max_cycle;Signal;HPM_P1;HPM_P2
2023/03/16 00:00:56;;;;;;;;;;;5.50;99.90;;;;;;4956221;29;20065;-87
2023/03/16 00:03:22;;;;;;;;;;;5.00;99.90;;;;;;4955915;29;20287;-87
2023/03/16 00:05:48;;;;;;;;;;;4.70;99.90;;;;;;4955663;29;19965;-87
2023/03/16 00:08:14;;;;;;;;;;;2.80;99.90;;;;;;4955367;28;20290;-87
2023/03/16 00:10:45;;;;;;;;;;;3.20;99.90;;;;;;4940110;29;20311;-88
2023/03/16 00:13:14;;;;;;;;;;;2.80;99.90;;;;;;4972919;28;19930;-87
2023/03/16 00:15:40;;;;;;;;;;;2.80;99.90;;;;;;4956167;28;19978;-88
2023/03/16 00:18:06;;;;;;;;;;;5.60;99.90;;;;;;4972261;28;19927;-87
2023/03/16 00:20:32;;;;;;;;;;;4.90;99.90;;;;;;4971365;28;19927;-87
2023/03/16 00:22:58;;;;;;;;;;;3.80;99.90;;;;;;4955715;29;19973;-87
2023/03/16 00:25:26;;;;;;;;;;;5.50;99.90;;;;;;4939914;29;20353;-88
2023/03/16 00:27:52;;;;;;;;;;;3.80;99.90;;;;;;4971835;28;19986;-87
2023/03/16 00:30:18;;;;;;;;;;;5.00;99.90;;;;;;4956507;29;19926;-87
2023/03/16 00:32:43;;;;;;;;;;;2.90;99.90;;;;;;4955756;29;19938;-87
2023/03/16 00:35:09;;;;;;;;;;;4.10;99.90;;;;;;4955809;29;19926;-87
2023/03/16 00:37:36;;;;;;;;;;;4.40;99.90;;;;;;4955397;29;20021;-87
2023/03/16 00:40:02;;;;;;;;;;;4.10;99.90;;;;;;4955512;29;19926;-87
2023/03/16 00:42:29;;;;;;;;;;;2.90;99.90;;;;;;4955142;29;20290;-87
2023/03/16 00:44:56;;;;;;;;;;;2.00;99.90;;;;;;4971522;28;19987;-88
2023/03/16 00:47:22;;;;;;;;;;;4.30;99.90;;;;;;4971194;28;19926;-88
2023/03/16 00:49:48;;;;;;;;;;;3.50;99.90;;;;;;4971626;28;20301;-87
2023/03/16 00:52:13;;;;;;;;;;;3.20;99.90;;;;;;4955114;29;19970;-88
2023/03/16 00:54:41;;;;;;;;;;;4.80;99.90;;;;;;4955283;29;19968;-88
2023/03/16 00:57:08;;;;;;;;;;;3.00;99.90;;;;;;4955337;29;19977;-87
2023/03/16 00:59:36;;;;;;;;;;;3.00;99.90;;;;;;4955734;29;19978;-87
2023/03/16 01:02:02;;;;;;;;;;;3.10;99.90;;;;;;4955826;29;19931;-88
2023/03/16 01:04:28;;;;;;;;;;;3.00;99.90;;;;;;4971079;28;19978;-87
2023/03/16 01:06:54;;;;;;;;;;;6.30;99.90;;;;;;4955029;29;19930;-87
2023/03/16 01:09:20;;;;;;;;;;;5.20;99.90;;;;;;4954372;29;19984;-87
2023/03/16 01:11:48;;;;;;;;;;;5.40;99.90;;;;;;4970918;28;20025;-87
2023/03/16 01:14:13;;;;;;;;;;;3.10;99.90;;;;;;4954883;28;19984;-87
2023/03/16 01:16:39;;;;;;;;;;;5.00;99.90;;;;;;4955019;29;19927;-87
2023/03/16 01:19:05;;;;;;;;;;;3.40;99.90;;;;;;4954784;29;19926;-88
2023/03/16 01:21:32;;;;;;;;;;;3.00;99.90;;;;;;4955937;28;19927;-87
2023/03/16 01:23:58;;;;;;;;;;;3.00;99.90;;;;;;4954676;29;19978;-87
2023/03/16 01:26:24;;;;;;;;;;;6.30;99.90;;;;;;4971439;28;19926;-88
2023/03/16 01:28:49;;;;;;;;;;;5.40;99.90;;;;;;4970733;28;20047;-87
2023/03/16 01:31:15;;;;;;;;;;;5.10;99.90;;;;;;4938777;29;19926;-87
2023/03/16 01:33:41;;;;;;;;;;;6.00;99.90;;;;;;4938839;29;19989;-88
2023/03/16 01:36:08;;;;;;;;;;;4.60;99.90;;;;;;4970954;28;19926;-88
2023/03/16 01:38:34;;;;;;;;;;;3.00;99.90;;;;;;4970489;28;20005;-88
2023/03/16 01:41:00;;;;;;;;;;;0.60;99.90;;;;;;4970716;28;20374;-87
2023/03/16 01:43:26;;;;;;;;;;;5.90;99.90;;;;;;4938145;29;19938;-87
2023/03/16 01:45:52;;;;;;;;;;;3.10;99.90;;;;;;4938589;29;19926;-88
2023/03/16 01:48:19;;;;;;;;;;;3.10;99.90;;;;;;4954829;29;19927;-87
2023/03/16 01:50:44;;;;;;;;;;;6.30;99.90;;;;;;4954753;28;19926;-87
2023/03/16 01:53:10;;;;;;;;;;;6.30;99.90;;;;;;4954199;29;19926;-87
2023/03/16 01:55:36;;;;;;;;;;;3.10;99.90;;;;;;4970946;28;20244;-87
2023/03/16 01:58:02;;;;;;;;;;;3.00;99.90;;;;;;4954150;29;20375;-88
2023/03/16 02:00:31;;;;;;;;;;;3.70;99.90;;;;;;4954335;29;20388;-87
2023/03/16 02:03:06;;;;;;;;;;;1.40;99.90;;;;;;4970384;28;19927;-87
2023/03/16 02:05:35;;;;;;;;;;;3.30;99.90;;;;;;4954280;29;19927;-88
2023/03/16 02:08:02;;;;;;;;;;;3.20;99.90;;;;;;4938670;29;19938;-88
2023/03/16 02:10:28;;;;;;;;;;;6.00;99.90;;;;;;4954362;29;20414;-87
2023/03/16 02:12:53;;;;;;;;;;;6.30;99.90;;;;;;4953653;29;19931;-89
2023/03/16 02:15:19;;;;;;;;;;;5.30;99.90;;;;;;4954239;29;20287;-87
2023/03/16 02:17:45;;;;;;;;;;;3.00;99.90;;;;;;4970007;28;19933;-87
2023/03/16 02:20:23;;;;;;;;;;;3.00;99.90;;;;;;4971951;28;20350;-87
2023/03/16 02:22:52;;;;;;;;;;;3.00;99.90;;;;;;4958594;29;19926;-87
2023/03/16 02:25:19;;;;;;;;;;;3.00;99.90;;;;;;4942709;29;20392;-88
2023/03/16 02:28:20;;;;;;;;;;;4.50;99.90;;;;;;4957980;28;19926;-87
2023/03/16 02:30:46;;;;;;;;;;;3.00;99.90;;;;;;4902545;29;19927;-88
2023/03/16 02:33:12;;;;;;;;;;;4.40;99.90;;;;;;4961847;28;19934;-88
2023/03/16 02:35:37;;;;;;;;;;;3.00;99.90;;;;;;4957769;29;20064;-88
2023/03/16 02:38:03;;;;;;;;;;;3.00;99.90;;;;;;4958239;29;19930;-88
2023/03/16 02:40:30;;;;;;;;;;;4.40;99.90;;;;;;4957494;29;20006;-88
2023/03/16 02:43:04;;;;;;;;;;;3.00;99.90;;;;;;4941315;29;19934;-88
2023/03/16 02:45:38;;;;;;;;;;;3.00;99.90;;;;;;4957905;28;20383;-87
2023/03/16 02:48:06;;;;;;;;;;;3.00;99.90;;;;;;4974195;28;20013;-87
2023/03/16 02:50:32;;;;;;;;;;;3.10;99.90;;;;;;4957922;28;20029;-88
2023/03/16 02:52:57;;;;;;;;;;;1.40;99.90;;;;;;4957516;29;20030;-87
2023/03/16 02:55:23;;;;;;;;;;;5.30;99.90;;;;;;4957615;29;20465;-88
2023/03/16 02:57:49;;;;;;;;;;;3.10;99.90;;;;;;4957421;29;19930;-87
2023/03/16 03:00:16;;;;;;;;;;;3.30;99.90;;;;;;4973597;28;19936;-88
2023/03/16 03:02:42;;;;;;;;;;;3.20;99.90;;;;;;4957326;29;20363;-88
2023/03/16 03:05:08;;;;;;;;;;;5.90;99.90;;;;;;4957220;28;19966;-88
2023/03/16 03:07:33;;;;;;;;;;;3.20;99.90;;;;;;4941724;29;19980;-88
2023/03/16 03:10:02;;;;;;;;;;;3.20;99.90;;;;;;4957963;29;19970;-88
2023/03/16 03:12:27;;;;;;;;;;;3.20;99.90;;;;;;4957183;29;20017;-88
2023/03/16 03:14:53;;;;;;;;;;;3.20;99.90;;;;;;4957255;29;19980;-87
2023/03/16 03:17:19;;;;;;;;;;;4.70;99.90;;;;;;4957227;29;19926;-87
2023/03/16 03:19:45;;;;;;;;;;;2.40;99.90;;;;;;4973117;28;20047;-88
2023/03/16 03:22:11;;;;;;;;;;;5.20;99.90;;;;;;4956889;29;19930;-88
2023/03/16 03:24:36;;;;;;;;;;;5.60;99.90;;;;;;4956874;29;20201;-88
2023/03/16 03:27:05;;;;;;;;;;;5.90;99.90;;;;;;4956874;29;19933;-88
2023/03/16 03:29:33;;;;;;;;;;;3.30;99.90;;;;;;4956527;29;19927;-88
2023/03/16 03:32:02;;;;;;;;;;;4.40;99.90;;;;;;4973271;28;20318;-88
2023/03/16 03:34:28;;;;;;;;;;;3.30;99.90;;;;;;4956568;29;20244;-87
2023/03/16 03:36:54;;;;;;;;;;;3.30;99.90;;;;;;4957365;29;20088;-88
2023/03/16 03:39:20;;;;;;;;;;;4.10;99.90;;;;;;4956501;28;19930;-88
2023/03/16 03:41:45;;;;;;;;;;;4.10;99.90;;;;;;4956323;29;20370;-88
2023/03/16 03:44:11;;;;;;;;;;;5.80;99.90;;;;;;4972177;28;19977;-88
2023/03/16 03:46:36;;;;;;;;;;;3.50;99.90;;;;;;4957150;29;19927;-87
2023/03/16 03:49:05;;;;;;;;;;;6.60;99.90;;;;;;4940793;29;19933;-88
2023/03/16 03:51:31;;;;;;;;;;;6.20;99.90;;;;;;4972556;28;20387;-88
2023/03/16 03:53:57;;;;;;;;;;;5.20;99.90;;;;;;4939996;29;19926;-88
2023/03/16 03:56:23;;;;;;;;;;;6.30;99.90;;;;;;4956056;29;19938;-87
2023/03/16 03:58:49;;;;;;;;;;;5.40;99.90;;;;;;4956515;29;19927;-88
2023/03/16 04:01:14;;;;;;;;;;;5.30;99.90;;;;;;4956379;29;19937;-88
2023/03/16 04:03:40;;;;;;;;;;;3.30;99.90;;;;;;4972982;28;19927;-88
2023/03/16 04:06:07;;;;;;;;;;;6.40;99.90;;;;;;4956199;29;19989;-87
2023/03/16 04:08:32;;;;;;;;;;;3.30;99.90;;;;;;4956466;29;20223;-89
2023/03/16 04:10:58;;;;;;;;;;;5.80;99.90;;;;;;4956255;29;19926;-87
2023/03/16 04:13:24;;;;;;;;;;;3.30;99.90;;;;;;4955967;29;19927;-88
2023/03/16 04:15:54;;;;;;;;;;;2.60;99.90;;;;;;4939851;29;19950;-88
2023/03/16 04:18:21;;;;;;;;;;;3.30;99.90;;;;;;4972304;28;20021;-88
2023/03/16 04:20:47;;;;;;;;;;;3.30;99.90;;;;;;4939947;29;19926;-87
2023/03/16 04:23:12;;;;;;;;;;;3.70;99.90;;;;;;4955866;29;20014;-87
2023/03/16 04:25:38;;;;;;;;;;;5.40;99.90;;;;;;4956515;29;19974;-88
2023/03/16 04:28:04;;;;;;;;;;;3.40;99.90;;;;;;4955643;29;19926;-88
2023/03/16 04:30:29;;;;;;;;;;;1.50;99.90;;;;;;4939691;29;19927;-87
2023/03/16 04:32:55;;;;;;;;;;;6.50;99.90;;;;;;4955082;29;20025;-87
2023/03/16 04:35:21;;;;;;;;;;;6.10;99.90;;;;;;4955548;29;19933;-88
2023/03/16 04:37:46;;;;;;;;;;;6.20;99.90;;;;;;4955677;29;19926;-88
2023/03/16 04:40:15;;;;;;;;;;;4.20;99.90;;;;;;4955554;29;19949;-88
2023/03/16 04:42:41;;;;;;;;;;;3.30;99.90;;;;;;4970661;28;20030;-88
2023/03/16 04:45:07;;;;;;;;;;;3.30;99.90;;;;;;4972318;28;19926;-88
2023/03/16 04:47:33;;;;;;;;;;;3.40;99.90;;;;;;4971109;28;19930;-88
2023/03/16 04:50:02;;;;;;;;;;;5.70;99.90;;;;;;4954870;29;20304;-88
2023/03/16 04:52:28;;;;;;;;;;;4.70;99.90;;;;;;4972121;28;20326;-87
2023/03/16 04:54:54;;;;;;;;;;;3.70;99.90;;;;;;4971153;28;19926;-88
2023/03/16 04:57:20;;;;;;;;;;;4.40;99.90;;;;;;4955227;28;19934;-87
2023/03/16 04:59:45;;;;;;;;;;;3.30;99.90;;;;;;4955319;29;19934;-87
2023/03/16 05:02:11;;;;;;;;;;;5.60;99.90;;;;;;4955096;29;19931;-88
2023/03/16 05:04:37;;;;;;;;;;;4.60;99.90;;;;;;4939440;29;19933;-88
2023/03/16 05:07:02;;;;;;;;;;;6.00;99.90;;;;;;4971076;28;20021;-88
2023/03/16 05:09:28;;;;;;;;;;;4.00;99.90;;;;;;4954593;29;20290;-88
2023/03/16 05:11:54;;;;;;;;;;;4.20;99.90;;;;;;4955564;29;20108;-88
2023/03/16 05:14:19;;;;;;;;;;;4.10;99.90;;;;;;4954965;29;19933;-88
2023/03/16 05:16:47;;;;;;;;;;;6.70;99.90;;;;;;4954455;29;19926;-89
2023/03/16 05:19:29;;;;;;;;;;;3.90;99.90;;;;;;4971427;28;19985;-89
2023/03/16 05:22:18;;;;;;;;;;;4.20;99.90;;;;;;4955356;29;19966;-91
2023/03/16 05:24:53;;;;;;;;;;;4.00;99.90;;;;;;4957789;29;19933;-88
2023/03/16 05:27:40;;;;;;;;;;;3.90;99.90;;;;;;4941619;29;19927;-87
2023/03/16 05:30:16;;;;;;;;;;;4.80;99.90;;;;;;4971597;28;20335;-89
2023/03/16 05:33:24;;;;;;;;;;;3.90;99.90;;;;;;4955477;28;20366;-88
2023/03/16 05:36:13;;;;;;;;;;;3.70;99.90;;;;;;4955133;29;20375;-88
2023/03/16 05:38:41;;;;;;;;;;;3.40;99.90;;;;;;4970846;28;20001;-88
2023/03/16 05:41:20;;;;;;;;;;;3.70;99.90;;;;;;4939645;29;19980;-89
2023/03/16 05:44:04;;;;;;;;;;;1.70;99.90;;;;;;4954822;29;19927;-89
2023/03/16 05:46:56;;;;;;;;;;;3.40;99.90;;;;;;4939587;29;19941;-89
2023/03/16 05:52:25;;;;;;;;;;;3.70;99.90;;;;;;4951624;29;19927;-88
2023/03/16 05:57:50;;;;;;;;;;;3.70;99.90;;;;;;4944149;29;20401;-89
2023/03/16 06:03:02;;;;;;;;;;;4.00;99.90;;;;;;4944771;29;19977;-90
2023/03/16 06:05:33;;;;;;;;;;;4.00;99.90;;;;;;4937708;29;20338;-89
2023/03/16 06:11:13;;;;;;;;;;;3.50;99.90;;;;;;4945741;29;20013;-91
2023/03/16 06:14:09;;;;;;;;;;;;;;;;;;;;;
2023/03/16 06:16:56;;;;;;;;;;;3.60;99.90;;;;;;4970692;28;20026;-89
2023/03/16 06:19:32;;;;;;;;;;;3.70;99.90;;;;;;4953740;29;19966;-90
2023/03/16 06:22:21;;;;;;;;;;;3.80;99.90;;;;;;4938587;29;20319;-90
2023/03/16 06:24:52;;;;;;;;;;;4.00;99.90;;;;;;4938295;29;19970;-90
2023/03/16 06:27:28;;;;;;;;;;;4.20;99.90;;;;;;4938189;29;20209;-90
2023/03/16 06:29:59;;;;;;;;;;;3.90;99.90;;;;;;4955304;28;20355;-91
2023/03/16 06:39:24;;;;;;;;;;;3.70;99.90;;;;;;4882726;29;19926;-90
2023/03/16 06:42:09;;;;;;;;;;;3.70;99.90;;;;;;4916871;29;19926;-90
2023/03/16 06:44:38;;;;;;;;;;;1.80;99.90;;;;;;4918396;29;19954;-89
2023/03/16 06:47:16;;;;;;;;;;;3.80;99.90;;;;;;4951357;28;20308;-90
2023/03/16 06:49:47;;;;;;;;;;;3.90;99.90;;;;;;4938468;29;20383;-90
2023/03/16 06:55:08;;;;;;;;;;;4.20;99.90;;;;;;4940701;29;19934;-89
2023/03/16 06:57:39;;;;;;;;;;;4.60;99.90;;;;;;4958549;29;19927;-90
2023/03/16 07:00:07;;;;;;;;;;;4.00;99.90;;;;;;4955085;29;19927;-90
2023/03/16 07:02:42;;;;;;;;;;;4.80;99.90;;;;;;4954034;29;19977;-90
2023/03/16 07:10:50;;;;;;;;;;;5.70;99.90;;;;;;4960924;29;19989;-88
2023/03/16 07:13:19;;;;;;;;;;;4.10;99.90;;;;;;4957790;28;19981;-90
2023/03/16 07:16:04;;;;;;;;;;;5.30;99.90;;;;;;4940195;29;19927;-91
2023/03/16 07:18:43;;;;;;;;;;;;;;;;;;;;;
2023/03/16 07:21:37;;;;;;;;;;;4.10;99.90;;;;;;4975882;28;19926;-91
2023/03/16 07:24:00;;;;;;;;;;;4.30;99.90;;;;;;4956965;29;20403;-91
2023/03/16 07:26:45;;;;;;;;;;;4.20;99.90;;;;;;4958194;29;19933;-91
2023/03/16 07:29:15;;;;;;;;;;;3.50;99.90;;;;;;4941630;29;19926;-91
2023/03/16 07:31:53;;;;;;;;;;;4.60;99.90;;;;;;4942711;29;19976;-90
2023/03/16 07:34:28;;;;;;;;;;;4.50;99.90;;;;;;4941268;29;20320;-91
2023/03/16 07:37:12;;;;;;;;;;;;;;;;;;;;;
2023/03/16 07:39:50;;;;;;;;;;;;;;;;;;;;;
2023/03/16 07:42:16;;;;;;;;;;;5.00;99.90;;;;;;4956752;28;19926;-91
2023/03/16 07:45:01;;;;;;;;;;;;;;;;;;;;;
2023/03/16 07:47:37;;;;;;;;;;;4.40;99.90;;;;;;4972863;28;19933;-91
2023/03/16 07:50:05;;;;;;;;;;;4.90;99.90;;;;;;4957612;29;19930;-91
2023/03/16 07:52:45;;;;;;;;;;;4.70;99.90;;;;;;4978415;28;19925;-90
2023/03/16 07:55:16;;;;;;;;;;;5.70;99.90;;;;;;4964217;28;19941;-90
2023/03/16 07:57:47;;;;;;;;;;;4.50;99.90;;;;;;4980484;28;19978;-90
2023/03/16 08:00:24;;;;;;;;;;;4.90;99.90;;;;;;4964520;28;19915;-91
2023/03/16 08:02:56;;;;;;;;;;;4.70;99.90;;;;;;4964612;28;19914;-91
2023/03/16 08:05:25;;;;;;;;;;;5.40;99.90;;;;;;4964321;28;19990;-91
2023/03/16 08:07:51;;;;;;;;;;;4.80;99.90;;;;;;4963851;28;19930;-91
2023/03/16 08:10:22;;;;;;;;;;;5.00;99.90;;;;;;4963841;28;20041;-91
2023/03/16 08:12:53;;;;;;;;;;;5.60;99.90;;;;;;4954367;28;19942;-91
2023/03/16 08:15:26;;;;;;;;;;;6.00;99.90;;;;;;4941841;29;19926;-92
2023/03/16 08:18:25;;;;;;;;;;;;;;;;;;;;;
2023/03/16 08:21:12;;;;;;;;;;;4.40;99.90;;;;;;4973641;28;19933;-94
2023/03/16 08:23:47;;;;;;;;;;;;;;;;;;;;;
2023/03/16 08:26:26;;;;;;;;;;;4.00;99.90;;;;;;4973616;28;19927;-93
2023/03/16 08:29:01;;;;;;;;;;;5.20;99.90;;;;;;4939703;29;19927;-89
2023/03/16 08:31:41;;;;;;;;;;;4.80;99.90;;;;;;4947164;29;19927;-91
2023/03/16 08:37:36;;;;;;;;;;;4.90;99.90;;;;;;4956362;29;19926;-92
2023/03/16 08:40:28;;;;;;;;;;;4.90;99.90;;;;;;4955151;29;19926;-91
2023/03/16 08:43:34;;;;;;;;;;;;;;;;;;;;;
2023/03/16 08:46:22;;;;;;;;;;;4.60;99.90;;;;;;4972492;28;20248;-90
2023/03/16 08:49:16;;;;;;;;;;;3.60;99.90;;;;;;4936329;28;19961;-91
2023/03/16 08:51:49;;;;;;;;;;;5.00;99.90;;;;;;4955753;29;20375;-92
2023/03/16 08:55:14;;;;;;;;;;;;;;;;;;;;;
2023/03/16 08:58:17;;;;;;;;;;;7.20;99.90;;;;;;4954724;29;20359;-92
2023/03/16 09:00:45;;;;;;;;;;;5.60;99.90;;;;;;4956223;29;20312;-91
2023/03/16 09:03:19;;;;;;;;;;;5.20;99.90;;;;;;4940638;29;19981;-91
2023/03/16 09:09:22;;;;;;;;;;;;;;;;;;;;;
2023/03/16 09:12:24;;;;;;;;;;;;;;;;;;;;;
2023/03/16 09:15:11;;;;;;;;;;;4.30;99.90;;;;;;4955870;29;19958;-91
2023/03/16 09:18:06;;;;;;;;;;;4.90;99.90;;;;;;4971861;28;20310;-93
2023/03/16 09:20:57;;;;;;;;;;;;;;;;;;;;;
2023/03/16 09:23:38;;;;;;;;;;;;;;;;;;;;;
2023/03/16 09:26:18;;;;;;;;;;;;;;;;;;;;;
2023/03/16 09:28:46;;;;;;;;;;;4.90;99.90;;;;;;4954587;28;20029;-89
2023/03/16 09:31:20;;;;;;;;;;;5.30;99.90;;;;;;4971703;28;20404;-91
2023/03/16 09:34:03;;;;;;;;;;;5.60;99.90;;;;;;4940056;29;19977;-91
2023/03/16 09:36:40;;;;;;;;;;;5.10;99.90;;;;;;4938464;29;20410;-89
2023/03/16 09:39:16;;;;;;;;;;;;;;;;;;;;;
2023/03/16 09:42:11;;;;;;;;;;;5.30;99.90;;;;;;4955913;29;19949;-90
2023/03/16 09:44:57;;;;;;;;;;;5.50;99.90;;;;;;4948518;29;19960;-89
2023/03/16 09:47:33;;;;;;;;;;;4.20;99.90;;;;;;4938787;29;19985;-89
2023/03/16 09:50:18;;;;;;;;;;;5.60;99.90;;;;;;4938949;29;19934;-91
2023/03/16 09:53:05;;;;;;;;;;;5.70;99.90;;;;;;4938890;29;19938;-91
2023/03/16 09:55:48;;;;;;;;;;;5.60;99.90;;;;;;4949788;29;19926;-90
2023/03/16 09:58:38;;;;;;;;;;;;;;;;;;;;;
2023/03/16 10:01:18;;;;;;;;;;;;;;;;;;;;;
2023/03/16 10:04:27;;;;;;;;;;;5.80;99.90;;;;;;4954112;29;19981;-91
2023/03/16 10:07:04;;;;;;;;;;;6.70;99.90;;;;;;4957558;29;19927;-90
2023/03/16 10:09:58;;;;;;;;;;;4.60;99.90;;;;;;4939089;29;19946;-91
2023/03/16 10:12:40;;;;;;;;;;;4.70;99.90;;;;;;4948958;29;19926;-91
2023/03/16 10:15:30;;;;;;;;;;;5.90;99.90;;;;;;4938912;29;20013;-90
2023/03/16 10:18:06;;;;;;;;;;;5.80;99.90;;;;;;4954228;28;19949;-90
2023/03/16 10:20:46;;;;;;;;;;;;;;;;;;;;;
2023/03/16 10:23:41;;;;;;;;;;;3.40;99.90;;;;;;4954177;29;19936;-91
2023/03/16 10:29:31;;;;;;;;;;;5.90;99.90;;;;;;4947958;29;20021;-89
2023/03/16 10:32:27;;;;;;;;;;;6.30;99.90;;;;;;4939085;29;19942;-89
2023/03/16 10:35:17;;;;;;;;;;;5.70;99.90;;;;;;4938546;29;20292;-91
2023/03/16 10:37:51;;;;;;;;;;;5.80;99.90;;;;;;4946174;28;19994;-89
2023/03/16 10:40:19;;;;;;;;;;;5.30;99.90;;;;;;4938060;29;19927;-92
2023/03/16 10:42:58;;;;;;;;;;;;;;;;;;;;;
2023/03/16 10:45:40;;;;;;;;;;;6.70;99.90;;;;;;4957977;29;19926;-90
2023/03/16 10:48:33;;;;;;;;;;;8.00;99.90;;;;;;4941610;29;19927;-89
2023/03/16 10:51:00;;;;;;;;;;;6.10;99.90;;;;;;4973301;28;19973;-87
2023/03/16 10:53:31;;;;;;;;;;;6.20;99.90;;;;;;4942422;29;20018;-88
2023/03/16 10:56:00;;;;;;;;;;;6.10;99.90;;;;;;4941821;29;20286;-89
2023/03/16 10:58:36;;;;;;;;;;;5.10;99.90;;;;;;4942160;29;20389;-89
2023/03/16 11:04:19;;;;;;;;;;;7.10;99.90;;;;;;4958173;29;20246;-88
2023/03/16 11:06:58;;;;;;;;;;;4.30;99.90;;;;;;4941173;29;20041;-90
2023/03/16 11:12:20;;;;;;;;;;;4.20;99.90;;;;;;4959945;28;19973;-94
2023/03/16 11:14:56;;;;;;;;;;;4.50;99.90;;;;;;4921278;29;19932;-92
2023/03/16 11:17:43;;;;;;;;;;;6.50;99.90;;;;;;4907337;29;20437;-90
2023/03/16 11:20:27;;;;;;;;;;;6.40;99.90;;;;;;4920854;29;19926;-91
2023/03/16 11:23:01;;;;;;;;;;;6.00;99.90;;;;;;4921723;29;19981;-90
2023/03/16 11:25:52;;;;;;;;;;;4.60;99.90;;;;;;4920544;29;19962;-90
2023/03/16 11:28:43;;;;;;;;;;;6.30;99.90;;;;;;4911641;29;19988;-89
2023/03/16 11:34:22;;;;;;;;;;;;;;;;;;;;;
2023/03/16 11:37:22;;;;;;;;;;;7.20;99.90;;;;;;4937810;29;19979;-90
2023/03/16 11:39:57;;;;;;;;;;;5.20;99.90;;;;;;4862781;29;19926;-92
2023/03/16 11:42:34;;;;;;;;;;;6.50;99.90;;;;;;4908241;29;19950;-92
2023/03/16 11:45:41;;;;;;;;;;;6.80;99.90;;;;;;4927690;29;19926;-92
2023/03/16 11:48:49;;;;;;;;;;;6.80;99.90;;;;;;4957874;28;19930;-91
2023/03/16 11:51:38;;;;;;;;;;;;;;;;;;;;;
2023/03/16 11:54:13;;;;;;;;;;;6.80;99.90;;;;;;4973397;28;20016;-90
2023/03/16 11:57:05;;;;;;;;;;;7.00;99.90;;;;;;4956908;29;20014;-91
2023/03/16 11:59:57;;;;;;;;;;;6.50;99.90;;;;;;4952602;29;19933;-90
2023/03/16 12:03:04;;;;;;;;;;;;;;;;;;;;;
2023/03/16 12:05:40;;;;;;;;;;;7.30;99.90;;;;;;4957154;29;19965;-91
2023/03/16 12:08:48;;;;;;;;;;;7.30;99.90;;;;;;4959735;28;19926;-92
2023/03/16 12:14:27;;;;;;;;;;;7.00;99.90;;;;;;4979643;28;19915;-92
2023/03/16 12:17:46;;;;;;;;;;;7.60;99.90;;;;;;4965210;28;19970;-92
2023/03/16 12:20:00;;;;;;;;;;;8.10;99.90;;;;;;4973792;28;19941;-92
2023/03/16 12:22:59;;;;;;;;;;;7.70;99.90;;;;;;4963698;28;19914;-91
2023/03/16 12:25:44;;;;;;;;;;;7.80;99.90;;;;;;4958323;28;19915;-93
2023/03/16 12:28:54;;;;;;;;;;;8.40;99.90;;;;;;4979301;28;19937;-90
2023/03/16 12:31:39;;;;;;;;;;;8.00;99.90;;;;;;4972798;28;19927;-90
2023/03/16 12:34:37;;;;;;;;;;;7.60;99.90;;;;;;4964641;28;20430;-90
2023/03/16 12:37:13;;;;;;;;;;;7.90;99.90;;;;;;4940633;29;19930;-91
2023/03/16 12:39:44;;;;;;;;;;;8.30;99.90;;;;;;4955916;29;20033;-93
2023/03/16 12:42:23;;;;;;;;;;;;;;;;;;;;;
2023/03/16 12:44:58;;;;;;;;;;;6.80;99.90;;;;;;4971870;28;19926;-90
2023/03/16 12:47:55;;;;;;;;;;;11.20;99.90;;;;;;4939744;29;19927;-88
2023/03/16 12:50:47;;;;;;;;;;;9.00;99.90;;;;;;4906325;28;20501;-90
2023/03/16 12:53:27;;;;;;;;;;;7.80;99.90;;;;;;4940019;29;20017;-90
2023/03/16 12:59:02;;;;;;;;;;;8.70;99.90;;;;;;4949118;29;19926;-91
2023/03/16 13:01:44;;;;;;;;;;;8.90;99.90;;;;;;4947546;29;19927;-91
2023/03/16 13:04:20;;;;;;;;;;;7.00;99.90;;;;;;4939403;29;20387;-92
2023/03/16 13:07:19;;;;;;;;;;;;;;;;;;;;;
2023/03/16 13:09:50;;;;;;;;;;;9.00;99.90;;;;;;4956833;29;19948;-92
2023/03/16 13:12:55;;;;;;;;;;;;;;;;;;;;;
2023/03/16 13:15:37;;;;;;;;;;;8.30;99.90;;;;;;4968140;29;19949;-92
2023/03/16 13:20:56;;;;;;;;;;;8.80;99.90;;;;;;4944941;29;19956;-90
2023/03/16 13:23:28;;;;;;;;;;;9.00;99.90;;;;;;4939674;29;19926;-91
2023/03/16 13:29:06;;;;;;;;;;;9.40;99.90;;;;;;4948910;29;20335;-92
2023/03/16 13:31:49;;;;;;;;;;;8.90;99.90;;;;;;4939941;29;19949;-92
2023/03/16 13:34:35;;;;;;;;;;;9.30;99.90;;;;;;4940594;29;19927;-93
2023/03/16 13:37:22;;;;;;;;;;;8.90;99.90;;;;;;4947639;29;19927;-91
2023/03/16 13:40:03;;;;;;;;;;;9.40;99.90;;;;;;4955266;29;19926;-91
2023/03/16 13:43:03;;;;;;;;;;;;;;;;;;;;;
2023/03/16 13:45:45;;;;;;;;;;;8.30;99.90;;;;;;4971747;28;20022;-92
2023/03/16 13:48:43;;;;;;;;;;;9.50;99.90;;;;;;4940540;29;20022;-92
2023/03/16 13:51:36;;;;;;;;;;;9.50;99.90;;;;;;4952121;29;19926;-92
2023/03/16 13:54:17;;;;;;;;;;;9.50;99.90;;;;;;4955893;28;20020;-92
2023/03/16 13:57:06;;;;;;;;;;;7.90;99.90;;;;;;4939810;29;19941;-92
2023/03/16 13:59:59;;;;;;;;;;;9.60;99.90;;;;;;4956174;28;20298;-92
2023/03/16 14:02:57;;;;;;;;;;;;;;;;;;;;;
2023/03/16 14:08:57;;;;;;;;;;;8.30;99.90;;;;;;4970890;28;19935;-93
2023/03/16 14:11:47;;;;;;;;;;;;;;;;;;;;;
2023/03/16 14:14:53;;;;;;;;;;;9.70;99.90;;;;;;4954544;29;19930;-91
2023/03/16 14:17:41;;;;;;;;;;;9.10;99.90;;;;;;4936826;29;19981;-91
2023/03/16 14:23:32;;;;;;;;;;;9.50;99.90;;;;;;4932049;29;19927;-91
2023/03/16 14:26:02;;;;;;;;;;;8.80;99.90;;;;;;4944091;29;19981;-91
2023/03/16 14:28:45;;;;;;;;;;;8.50;99.90;;;;;;4962735;29;19937;-90
2023/03/16 14:31:29;;;;;;;;;;;9.50;99.90;;;;;;4944235;29;19926;-92
2023/03/16 14:34:03;;;;;;;;;;;9.70;99.90;;;;;;4943843;29;19930;-92
2023/03/16 14:37:05;;;;;;;;;;;;;;;;;;;;;
2023/03/16 14:39:52;;;;;;;;;;;9.80;99.90;;;;;;4954740;29;19989;-91
2023/03/16 14:42:44;;;;;;;;;;;9.60;99.90;;;;;;4958856;28;20359;-93
2023/03/16 14:45:17;;;;;;;;;;;9.50;99.90;;;;;;4953629;29;19926;-93
2023/03/16 14:47:53;;;;;;;;;;;8.20;99.90;;;;;;4948979;29;19926;-92
2023/03/16 14:50:36;;;;;;;;;;;9.70;99.90;;;;;;4949671;29;19926;-92
2023/03/16 14:53:29;;;;;;;;;;;9.80;99.90;;;;;;4959217;28;19954;-90
2023/03/16 14:56:22;;;;;;;;;;;10.00;99.90;;;;;;4958806;29;19936;-93
2023/03/16 14:59:30;;;;;;;;;;;;;;;;;;;;;
2023/03/16 15:01:56;;;;;;;;;;;10.20;99.90;;;;;;4958839;28;20335;-93
2023/03/16 15:07:47;;;;;;;;;;;10.90;99.90;;;;;;4954201;29;19930;-91
2023/03/16 15:14:02;;;;;;;;;;;;;;;;;;;;;
2023/03/16 15:16:36;;;;;;;;;;;9.70;99.90;;;;;;4902611;29;19934;-91
2023/03/16 15:19:17;;;;;;;;;;;9.90;99.90;;;;;;4956033;29;20268;-90
2023/03/16 15:22:11;;;;;;;;;;;8.80;99.90;;;;;;4942137;29;20034;-91
2023/03/16 15:24:42;;;;;;;;;;;9.60;99.90;;;;;;4951415;29;19933;-92
2023/03/16 15:27:30;;;;;;;;;;;9.60;99.90;;;;;;4940801;29;20437;-91
2023/03/16 15:33:44;;;;;;;;;;;;;;;;;;;;;
2023/03/16 15:36:46;;;;;;;;;;;;;;;;;;;;;
2023/03/16 15:39:27;;;;;;;;;;;10.20;99.90;;;;;;4952299;29;20013;-90
2023/03/16 15:42:24;;;;;;;;;;;9.70;99.90;;;;;;4942326;29;19930;-91
2023/03/16 15:45:19;;;;;;;;;;;10.00;99.90;;;;;;4957444;29;19934;-91
2023/03/16 15:48:12;;;;;;;;;;;12.20;99.90;;;;;;4950410;29;19927;-89
2023/03/16 15:50:45;;;;;;;;;;;8.10;99.90;;;;;;4952763;29;20402;-90
2023/03/16 15:53:42;;;;;;;;;;;9.80;99.90;;;;;;4940603;29;20446;-90
2023/03/16 15:56:25;;;;;;;;;;;9.90;99.90;;;;;;4956839;29;19933;-90
2023/03/16 15:59:00;;;;;;;;;;;9.60;99.90;;;;;;4940890;29;19978;-90
2023/03/16 16:01:39;;;;;;;;;;;9.70;99.90;;;;;;4940874;29;19973;-91
2023/03/16 16:04:27;;;;;;;;;;;9.80;99.90;;;;;;4941600;29;19973;-91
2023/03/16 16:07:01;;;;;;;;;;;10.20;99.90;;;;;;4941204;29;20009;-90
2023/03/16 16:09:37;;;;;;;;;;;9.60;99.90;;;;;;4956166;29;20017;-90
2023/03/16 16:12:19;;;;;;;;;;;9.60;99.90;;;;;;4940933;29;19978;-90
2023/03/16 16:14:49;;;;;;;;;;;9.60;99.90;;;;;;4940913;29;19926;-91
2023/03/16 16:17:24;;;;;;;;;;;8.10;99.90;;;;;;4941418;29;20335;-90
2023/03/16 16:20:17;;;;;;;;;;;10.70;99.90;;;;;;4956953;29;20005;-91
2023/03/16 16:23:09;;;;;;;;;;;9.50;99.90;;;;;;4941649;29;20025;-90
2023/03/16 16:26:03;;;;;;;;;;;;;;;;;;;;;
2023/03/16 16:28:43;;;;;;;;;;;9.40;99.90;;;;;;4979064;28;19926;-90
2023/03/16 16:31:29;;;;;;;;;;;7.90;99.90;;;;;;4963738;28;19915;-93
2023/03/16 16:37:08;;;;;;;;;;;;;;;;;;;;;
2023/03/16 16:39:36;;;;;;;;;;;8.80;99.90;;;;;;4994912;28;19983;-88
2023/03/16 16:45:22;;;;;;;;;;;9.40;99.90;;;;;;4962943;28;19922;-90
2023/03/16 16:48:03;;;;;;;;;;;9.90;99.90;;;;;;4942561;29;19923;-87
2023/03/16 16:50:51;;;;;;;;;;;9.30;99.90;;;;;;4957918;29;19922;-88
2023/03/16 16:53:46;;;;;;;;;;;9.50;99.90;;;;;;4956140;28;19929;-87
2023/03/16 16:59:38;;;;;;;;;;;9.40;99.90;;;;;;4955510;28;20258;-88
2023/03/16 17:02:30;;;;;;;;;;;;;;;;;;;;;
2023/03/16 17:05:16;;;;;;;;;;;9.00;99.90;;;;;;4955847;28;20001;-91
2023/03/16 17:08:02;;;;;;;;;;;9.20;99.90;;;;;;4938801;29;19949;-88
2023/03/16 17:10:32;;;;;;;;;;;9.00;99.90;;;;;;4972047;28;20016;-88
2023/03/16 17:12:57;;;;;;;;;;;9.00;99.90;;;;;;4939079;29;19929;-87
2023/03/16 17:15:30;;;;;;;;;;;8.60;99.90;;;;;;4939232;29;19932;-88
2023/03/16 17:18:28;;;;;;;;;;;8.80;99.90;;;;;;4956157;28;19922;-91
2023/03/16 17:20:56;;;;;;;;;;;9.40;99.90;;;;;;4941465;29;19923;-89
2023/03/16 17:23:25;;;;;;;;;;;7.30;99.90;;;;;;4955091;29;19923;-89
2023/03/16 17:25:52;;;;;;;;;;;8.60;99.90;;;;;;4954692;29;20358;-88
2023/03/16 17:28:28;;;;;;;;;;;;;;;;;;;;;